sensor_id;sensor_type;location;lat;lon;timestamp;P1;durP1;ratioP1;P2;durP2;ratioP2
77226;SDS011;66234;47.642;19.144;2024-02-16T00:01:25;45.57;;;23.83;;
77226;SDS011;66234;47.642;19.144;2024-02-16T00:04:28;44.65;;;24.23;;
77226;SDS011;66234;47.642;19.144;2024-02-16T00:07:30;43.22;;;22.88;;
77226;SDS011;66234;47.642;19.144;2024-02-16T00:10:33;38.95;;;20.17;;
77226;SDS011;66234;47.642;19.144;2024-02-16T00:13:36;38.45;;;20.92;;
77226;SDS011;66234;47.642;19.144;2024-02-16T00:16:39;42.50;;;19.93;;
77226;SDS011;66234;47.642;19.144;2024-02-16T00:19:42;39.75;;;20.50;;
77226;SDS011;66234;47.642;19.144;2024-02-16T00:22:44;37.47;;;20.60;;
77226;SDS011;66234;47.642;19.144;2024-02-16T00:25:47;38.42;;;20.10;;
77226;SDS011;66234;47.642;19.144;2024-02-16T00:28:50;36.95;;;19.50;;
77226;SDS011;66234;47.642;19.144;2024-02-16T00:31:53;35.73;;;19.20;;
77226;SDS011;66234;47.642;19.144;2024-02-16T00:34:57;37.03;;;19.17;;
77226;SDS011;66234;47.642;19.144;2024-02-16T00:38:00;38.15;;;19.10;;
77226;SDS011;66234;47.642;19.144;2024-02-16T00:41:03;38.65;;;19.38;;
77226;SDS011;66234;47.642;19.144;2024-02-16T00:44:07;39.20;;;18.98;;
77226;SDS011;66234;47.642;19.144;2024-02-16T00:47:09;38.27;;;19.53;;
77226;SDS011;66234;47.642;19.144;2024-02-16T00:50:12;35.28;;;17.45;;
77226;SDS011;66234;47.642;19.144;2024-02-16T00:53:15;33.90;;;18.42;;
77226;SDS011;66234;47.642;19.144;2024-02-16T00:56:17;33.65;;;16.98;;
77226;SDS011;66234;47.642;19.144;2024-02-16T00:59:20;31.45;;;17.48;;
77226;SDS011;66234;47.642;19.144;2024-02-16T01:02:23;35.60;;;18.97;;
77226;SDS011;66234;47.642;19.144;2024-02-16T01:05:30;33.88;;;17.88;;
77226;SDS011;66234;47.642;19.144;2024-02-16T01:08:33;31.83;;;17.30;;
77226;SDS011;66234;47.642;19.144;2024-02-16T01:11:35;36.53;;;18.45;;
77226;SDS011;66234;47.642;19.144;2024-02-16T01:14:38;36.70;;;18.17;;
77226;SDS011;66234;47.642;19.144;2024-02-16T01:17:40;32.57;;;18.00;;
77226;SDS011;66234;47.642;19.144;2024-02-16T01:20:43;31.75;;;16.65;;
77226;SDS011;66234;47.642;19.144;2024-02-16T01:23:45;34.25;;;17.77;;
77226;SDS011;66234;47.642;19.144;2024-02-16T01:26:48;33.00;;;17.23;;
77226;SDS011;66234;47.642;19.144;2024-02-16T01:29:51;32.45;;;18.13;;
77226;SDS011;66234;47.642;19.144;2024-02-16T01:32:53;35.30;;;18.10;;
77226;SDS011;66234;47.642;19.144;2024-02-16T01:35:56;33.65;;;18.20;;
77226;SDS011;66234;47.642;19.144;2024-02-16T01:38:58;32.67;;;17.67;;
77226;SDS011;66234;47.642;19.144;2024-02-16T01:42:01;37.05;;;17.77;;
77226;SDS011;66234;47.642;19.144;2024-02-16T01:45:04;32.22;;;17.25;;
77226;SDS011;66234;47.642;19.144;2024-02-16T01:48:07;33.90;;;16.87;;
77226;SDS011;66234;47.642;19.144;2024-02-16T01:51:10;36.20;;;16.60;;
77226;SDS011;66234;47.642;19.144;2024-02-16T01:54:13;29.25;;;16.30;;
77226;SDS011;66234;47.642;19.144;2024-02-16T01:57:19;32.17;;;16.65;;
77226;SDS011;66234;47.642;19.144;2024-02-16T02:00:22;31.13;;;16.63;;
77226;SDS011;66234;47.642;19.144;2024-02-16T02:03:25;31.33;;;16.17;;
77226;SDS011;66234;47.642;19.144;2024-02-16T02:06:28;39.65;;;18.65;;
77226;SDS011;66234;47.642;19.144;2024-02-16T02:09:30;35.97;;;18.90;;
77226;SDS011;66234;47.642;19.144;2024-02-16T02:12:33;35.30;;;18.20;;
77226;SDS011;66234;47.642;19.144;2024-02-16T02:15:36;36.47;;;19.38;;
77226;SDS011;66234;47.642;19.144;2024-02-16T02:18:40;38.80;;;18.47;;
77226;SDS011;66234;47.642;19.144;2024-02-16T02:21:43;37.95;;;17.48;;
77226;SDS011;66234;47.642;19.144;2024-02-16T02:24:46;31.85;;;16.35;;
77226;SDS011;66234;47.642;19.144;2024-02-16T02:27:50;34.13;;;17.55;;
77226;SDS011;66234;47.642;19.144;2024-02-16T02:30:53;33.65;;;17.08;;
77226;SDS011;66234;47.642;19.144;2024-02-16T02:33:56;31.63;;;16.47;;
77226;SDS011;66234;47.642;19.144;2024-02-16T02:36:59;34.78;;;17.50;;
77226;SDS011;66234;47.642;19.144;2024-02-16T02:40:02;36.38;;;17.30;;
77226;SDS011;66234;47.642;19.144;2024-02-16T02:43:08;35.25;;;17.23;;
77226;SDS011;66234;47.642;19.144;2024-02-16T02:46:16;37.15;;;17.73;;
77226;SDS011;66234;47.642;19.144;2024-02-16T02:49:19;29.73;;;16.03;;
77226;SDS011;66234;47.642;19.144;2024-02-16T02:52:22;40.25;;;18.25;;
77226;SDS011;66234;47.642;19.144;2024-02-16T02:55:24;35.08;;;18.05;;
77226;SDS011;66234;47.642;19.144;2024-02-16T02:58:27;39.22;;;18.50;;
77226;SDS011;66234;47.642;19.144;2024-02-16T03:01:30;33.28;;;16.52;;
77226;SDS011;66234;47.642;19.144;2024-02-16T03:04:33;36.90;;;18.63;;
77226;SDS011;66234;47.642;19.144;2024-02-16T03:07:36;40.05;;;18.85;;
77226;SDS011;66234;47.642;19.144;2024-02-16T03:10:40;36.38;;;18.52;;
77226;SDS011;66234;47.642;19.144;2024-02-16T03:13:42;40.60;;;19.27;;
77226;SDS011;66234;47.642;19.144;2024-02-16T03:16:45;41.60;;;20.03;;
77226;SDS011;66234;47.642;19.144;2024-02-16T03:19:48;43.73;;;20.93;;
77226;SDS011;66234;47.642;19.144;2024-02-16T03:22:50;38.58;;;19.05;;
77226;SDS011;66234;47.642;19.144;2024-02-16T03:25:53;38.90;;;19.30;;
77226;SDS011;66234;47.642;19.144;2024-02-16T03:28:55;35.10;;;19.25;;
77226;SDS011;66234;47.642;19.144;2024-02-16T03:31:58;37.73;;;20.17;;
77226;SDS011;66234;47.642;19.144;2024-02-16T03:35:01;45.63;;;21.00;;
77226;SDS011;66234;47.642;19.144;2024-02-16T03:38:04;41.90;;;20.08;;
77226;SDS011;66234;47.642;19.144;2024-02-16T03:41:07;47.28;;;21.45;;
77226;SDS011;66234;47.642;19.144;2024-02-16T03:44:09;42.72;;;21.75;;
77226;SDS011;66234;47.642;19.144;2024-02-16T03:47:12;47.63;;;22.43;;
77226;SDS011;66234;47.642;19.144;2024-02-16T03:50:14;35.42;;;19.27;;
77226;SDS011;66234;47.642;19.144;2024-02-16T03:53:17;38.85;;;21.15;;
77226;SDS011;66234;47.642;19.144;2024-02-16T03:56:20;39.55;;;20.30;;
77226;SDS011;66234;47.642;19.144;2024-02-16T03:59:23;43.77;;;21.50;;
77226;SDS011;66234;47.642;19.144;2024-02-16T04:02:26;45.60;;;21.73;;
77226;SDS011;66234;47.642;19.144;2024-02-16T04:05:28;43.22;;;21.52;;
77226;SDS011;66234;47.642;19.144;2024-02-16T04:08:34;41.95;;;21.98;;
77226;SDS011;66234;47.642;19.144;2024-02-16T04:11:37;47.78;;;22.73;;
77226;SDS011;66234;47.642;19.144;2024-02-16T04:14:39;45.53;;;22.97;;
77226;SDS011;66234;47.642;19.144;2024-02-16T04:17:44;41.58;;;21.50;;
77226;SDS011;66234;47.642;19.144;2024-02-16T04:20:46;45.85;;;22.55;;
77226;SDS011;66234;47.642;19.144;2024-02-16T04:23:49;41.17;;;21.95;;
77226;SDS011;66234;47.642;19.144;2024-02-16T04:26:52;40.43;;;22.27;;
77226;SDS011;66234;47.642;19.144;2024-02-16T04:29:54;38.90;;;21.88;;
77226;SDS011;66234;47.642;19.144;2024-02-16T04:32:57;44.25;;;23.20;;
77226;SDS011;66234;47.642;19.144;2024-02-16T04:36:00;39.77;;;23.00;;
77226;SDS011;66234;47.642;19.144;2024-02-16T04:39:03;51.60;;;24.57;;
77226;SDS011;66234;47.642;19.144;2024-02-16T04:42:06;43.08;;;23.00;;
77226;SDS011;66234;47.642;19.144;2024-02-16T04:45:11;42.85;;;22.13;;
77226;SDS011;66234;47.642;19.144;2024-02-16T04:48:15;43.63;;;23.27;;
77226;SDS011;66234;47.642;19.144;2024-02-16T04:51:18;45.80;;;24.67;;
77226;SDS011;66234;47.642;19.144;2024-02-16T04:54:20;49.90;;;26.33;;
77226;SDS011;66234;47.642;19.144;2024-02-16T04:57:23;48.03;;;24.88;;
77226;SDS011;66234;47.642;19.144;2024-02-16T05:00:25;49.97;;;25.00;;
77226;SDS011;66234;47.642;19.144;2024-02-16T05:03:28;43.30;;;23.80;;
77226;SDS011;66234;47.642;19.144;2024-02-16T05:06:31;45.08;;;24.55;;
77226;SDS011;66234;47.642;19.144;2024-02-16T05:09:34;45.88;;;24.05;;
77226;SDS011;66234;47.642;19.144;2024-02-16T05:12:37;42.38;;;23.98;;
77226;SDS011;66234;47.642;19.144;2024-02-16T05:15:40;44.77;;;25.60;;
77226;SDS011;66234;47.642;19.144;2024-02-16T05:18:42;43.53;;;25.20;;
77226;SDS011;66234;47.642;19.144;2024-02-16T05:21:45;45.63;;;24.63;;
77226;SDS011;66234;47.642;19.144;2024-02-16T05:24:48;44.40;;;24.17;;
77226;SDS011;66234;47.642;19.144;2024-02-16T05:27:50;43.40;;;24.23;;
77226;SDS011;66234;47.642;19.144;2024-02-16T05:30:53;46.92;;;24.38;;
77226;SDS011;66234;47.642;19.144;2024-02-16T05:33:58;43.47;;;24.80;;
77226;SDS011;66234;47.642;19.144;2024-02-16T05:37:01;41.20;;;23.13;;
77226;SDS011;66234;47.642;19.144;2024-02-16T05:40:04;40.97;;;23.00;;
77226;SDS011;66234;47.642;19.144;2024-02-16T05:43:26;45.90;;;24.50;;
77226;SDS011;66234;47.642;19.144;2024-02-16T05:46:29;47.30;;;23.77;;
77226;SDS011;66234;47.642;19.144;2024-02-16T05:49:32;51.22;;;25.25;;
77226;SDS011;66234;47.642;19.144;2024-02-16T05:52:36;46.57;;;23.27;;
77226;SDS011;66234;47.642;19.144;2024-02-16T05:55:38;43.92;;;24.35;;
77226;SDS011;66234;47.642;19.144;2024-02-16T05:58:41;44.92;;;23.60;;
77226;SDS011;66234;47.642;19.144;2024-02-16T06:01:44;51.77;;;25.13;;
77226;SDS011;66234;47.642;19.144;2024-02-16T06:04:46;49.90;;;27.17;;
77226;SDS011;66234;47.642;19.144;2024-02-16T06:07:49;46.15;;;23.08;;
77226;SDS011;66234;47.642;19.144;2024-02-16T06:10:51;45.95;;;24.38;;
77226;SDS011;66234;47.642;19.144;2024-02-16T06:13:56;46.17;;;24.67;;
77226;SDS011;66234;47.642;19.144;2024-02-16T06:16:59;45.67;;;24.13;;
77226;SDS011;66234;47.642;19.144;2024-02-16T06:20:02;46.75;;;23.42;;
77226;SDS011;66234;47.642;19.144;2024-02-16T06:23:06;45.05;;;23.92;;
77226;SDS011;66234;47.642;19.144;2024-02-16T06:26:09;42.37;;;23.60;;
77226;SDS011;66234;47.642;19.144;2024-02-16T06:29:12;48.57;;;24.77;;
77226;SDS011;66234;47.642;19.144;2024-02-16T06:32:16;47.35;;;25.45;;
77226;SDS011;66234;47.642;19.144;2024-02-16T06:35:19;48.75;;;24.95;;
77226;SDS011;66234;47.642;19.144;2024-02-16T06:38:22;46.53;;;25.13;;
77226;SDS011;66234;47.642;19.144;2024-02-16T06:41:25;44.43;;;24.57;;
77226;SDS011;66234;47.642;19.144;2024-02-16T06:44:27;50.22;;;25.80;;
77226;SDS011;66234;47.642;19.144;2024-02-16T06:47:33;52.72;;;25.15;;
77226;SDS011;66234;47.642;19.144;2024-02-16T06:50:35;47.07;;;26.10;;
77226;SDS011;66234;47.642;19.144;2024-02-16T06:53:38;52.03;;;25.00;;
77226;SDS011;66234;47.642;19.144;2024-02-16T06:56:41;53.78;;;26.35;;
77226;SDS011;66234;47.642;19.144;2024-02-16T06:59:44;53.85;;;28.90;;
77226;SDS011;66234;47.642;19.144;2024-02-16T07:02:46;50.03;;;28.50;;
77226;SDS011;66234;47.642;19.144;2024-02-16T07:05:49;56.17;;;29.47;;
77226;SDS011;66234;47.642;19.144;2024-02-16T07:08:52;52.60;;;30.15;;
77226;SDS011;66234;47.642;19.144;2024-02-16T07:11:54;57.13;;;32.47;;
77226;SDS011;66234;47.642;19.144;2024-02-16T07:14:57;54.40;;;27.05;;
77226;SDS011;66234;47.642;19.144;2024-02-16T07:18:00;51.50;;;25.07;;
77226;SDS011;66234;47.642;19.144;2024-02-16T07:21:03;49.25;;;25.52;;
77226;SDS011;66234;47.642;19.144;2024-02-16T07:24:06;46.33;;;25.95;;
77226;SDS011;66234;47.642;19.144;2024-02-16T07:27:09;45.60;;;23.80;;
77226;SDS011;66234;47.642;19.144;2024-02-16T07:30:13;45.00;;;23.55;;
77226;SDS011;66234;47.642;19.144;2024-02-16T07:33:24;40.23;;;22.90;;
77226;SDS011;66234;47.642;19.144;2024-02-16T07:36:31;45.45;;;23.10;;
77226;SDS011;66234;47.642;19.144;2024-02-16T07:39:34;45.03;;;23.42;;
77226;SDS011;66234;47.642;19.144;2024-02-16T07:42:40;40.85;;;22.10;;
77226;SDS011;66234;47.642;19.144;2024-02-16T07:45:44;39.58;;;20.10;;
77226;SDS011;66234;47.642;19.144;2024-02-16T07:48:48;41.50;;;21.27;;
77226;SDS011;66234;47.642;19.144;2024-02-16T07:51:51;41.88;;;21.00;;
77226;SDS011;66234;47.642;19.144;2024-02-16T07:54:53;42.55;;;21.08;;
77226;SDS011;66234;47.642;19.144;2024-02-16T07:57:56;41.20;;;19.95;;
77226;SDS011;66234;47.642;19.144;2024-02-16T08:00:59;39.63;;;19.38;;
77226;SDS011;66234;47.642;19.144;2024-02-16T08:04:01;37.17;;;19.53;;
77226;SDS011;66234;47.642;19.144;2024-02-16T08:07:07;37.13;;;19.25;;
77226;SDS011;66234;47.642;19.144;2024-02-16T08:10:10;36.50;;;20.00;;
77226;SDS011;66234;47.642;19.144;2024-02-16T08:13:15;37.30;;;19.25;;
77226;SDS011;66234;47.642;19.144;2024-02-16T08:16:18;37.97;;;18.73;;
77226;SDS011;66234;47.642;19.144;2024-02-16T08:19:21;40.90;;;19.33;;
77226;SDS011;66234;47.642;19.144;2024-02-16T08:22:23;38.67;;;20.15;;
77226;SDS011;66234;47.642;19.144;2024-02-16T08:25:27;44.35;;;20.77;;
77226;SDS011;66234;47.642;19.144;2024-02-16T08:28:33;36.08;;;19.40;;
77226;SDS011;66234;47.642;19.144;2024-02-16T08:31:39;40.10;;;19.98;;
77226;SDS011;66234;47.642;19.144;2024-02-16T08:34:43;37.50;;;19.07;;
77226;SDS011;66234;47.642;19.144;2024-02-16T08:37:47;39.38;;;19.10;;
77226;SDS011;66234;47.642;19.144;2024-02-16T08:40:51;37.15;;;19.27;;
77226;SDS011;66234;47.642;19.144;2024-02-16T08:43:57;36.53;;;18.00;;
77226;SDS011;66234;47.642;19.144;2024-02-16T08:47:00;35.00;;;18.20;;
77226;SDS011;66234;47.642;19.144;2024-02-16T08:50:02;35.27;;;17.87;;
77226;SDS011;66234;47.642;19.144;2024-02-16T08:53:05;34.10;;;17.95;;
77226;SDS011;66234;47.642;19.144;2024-02-16T08:56:11;32.28;;;15.95;;
77226;SDS011;66234;47.642;19.144;2024-02-16T08:59:14;31.80;;;15.32;;
77226;SDS011;66234;47.642;19.144;2024-02-16T09:02:16;25.52;;;14.20;;
77226;SDS011;66234;47.642;19.144;2024-02-16T09:05:19;29.90;;;14.10;;
77226;SDS011;66234;47.642;19.144;2024-02-16T09:08:22;35.88;;;15.48;;
77226;SDS011;66234;47.642;19.144;2024-02-16T09:11:28;30.63;;;15.48;;
77226;SDS011;66234;47.642;19.144;2024-02-16T09:14:31;30.25;;;15.60;;
77226;SDS011;66234;47.642;19.144;2024-02-16T09:17:34;32.67;;;15.23;;
77226;SDS011;66234;47.642;19.144;2024-02-16T09:20:36;31.13;;;14.87;;
77226;SDS011;66234;47.642;19.144;2024-02-16T09:23:39;27.20;;;13.75;;
77226;SDS011;66234;47.642;19.144;2024-02-16T09:26:43;31.13;;;13.45;;
77226;SDS011;66234;47.642;19.144;2024-02-16T09:29:50;25.27;;;12.25;;
77226;SDS011;66234;47.642;19.144;2024-02-16T09:32:53;25.30;;;12.90;;
77226;SDS011;66234;47.642;19.144;2024-02-16T09:35:56;28.30;;;13.20;;
77226;SDS011;66234;47.642;19.144;2024-02-16T09:38:59;24.83;;;12.80;;
77226;SDS011;66234;47.642;19.144;2024-02-16T09:42:01;23.10;;;12.20;;
77226;SDS011;66234;47.642;19.144;2024-02-16T09:45:05;21.40;;;9.93;;
77226;SDS011;66234;47.642;19.144;2024-02-16T09:48:09;19.48;;;9.00;;
77226;SDS011;66234;47.642;19.144;2024-02-16T09:51:16;16.50;;;8.90;;
77226;SDS011;66234;47.642;19.144;2024-02-16T09:54:21;16.48;;;8.15;;
77226;SDS011;66234;47.642;19.144;2024-02-16T09:57:24;14.70;;;7.40;;
77226;SDS011;66234;47.642;19.144;2024-02-16T10:00:28;16.77;;;7.00;;
77226;SDS011;66234;47.642;19.144;2024-02-16T10:03:31;13.50;;;7.07;;
77226;SDS011;66234;47.642;19.144;2024-02-16T10:06:48;14.97;;;7.07;;
77226;SDS011;66234;47.642;19.144;2024-02-16T10:09:52;13.75;;;6.72;;
77226;SDS011;66234;47.642;19.144;2024-02-16T10:13:06;11.77;;;6.28;;
77226;SDS011;66234;47.642;19.144;2024-02-16T10:16:11;13.18;;;6.78;;
77226;SDS011;66234;47.642;19.144;2024-02-16T10:19:17;11.52;;;5.75;;
77226;SDS011;66234;47.642;19.144;2024-02-16T10:22:20;14.67;;;6.03;;
77226;SDS011;66234;47.642;19.144;2024-02-16T10:25:25;10.50;;;6.03;;
77226;SDS011;66234;47.642;19.144;2024-02-16T10:28:30;11.65;;;6.20;;
77226;SDS011;66234;47.642;19.144;2024-02-16T10:31:33;14.15;;;6.63;;
77226;SDS011;66234;47.642;19.144;2024-02-16T10:34:36;13.05;;;6.38;;
77226;SDS011;66234;47.642;19.144;2024-02-16T10:37:41;10.47;;;6.30;;
77226;SDS011;66234;47.642;19.144;2024-02-16T10:40:47;10.40;;;5.88;;
77226;SDS011;66234;47.642;19.144;2024-02-16T10:43:58;10.25;;;5.57;;
77226;SDS011;66234;47.642;19.144;2024-02-16T10:47:03;12.05;;;5.50;;
77226;SDS011;66234;47.642;19.144;2024-02-16T10:50:07;11.70;;;5.40;;
77226;SDS011;66234;47.642;19.144;2024-02-16T10:53:14;17.67;;;6.07;;
77226;SDS011;66234;47.642;19.144;2024-02-16T10:56:27;14.05;;;4.97;;
77226;SDS011;66234;47.642;19.144;2024-02-16T10:59:42;10.75;;;5.47;;
77226;SDS011;66234;47.642;19.144;2024-02-16T11:05:56;11.55;;;5.80;;
77226;SDS011;66234;47.642;19.144;2024-02-16T11:09:02;8.20;;;4.33;;
77226;SDS011;66234;47.642;19.144;2024-02-16T11:12:12;9.40;;;4.82;;
77226;SDS011;66234;47.642;19.144;2024-02-16T11:15:26;8.00;;;4.22;;
77226;SDS011;66234;47.642;19.144;2024-02-16T11:18:39;14.55;;;4.80;;
77226;SDS011;66234;47.642;19.144;2024-02-16T11:22:02;12.48;;;5.03;;
77226;SDS011;66234;47.642;19.144;2024-02-16T11:25:14;8.57;;;4.37;;
77226;SDS011;66234;47.642;19.144;2024-02-16T11:28:17;11.63;;;4.32;;
77226;SDS011;66234;47.642;19.144;2024-02-16T11:31:21;9.15;;;5.30;;
77226;SDS011;66234;47.642;19.144;2024-02-16T11:34:24;8.05;;;4.72;;
77226;SDS011;66234;47.642;19.144;2024-02-16T11:37:29;9.68;;;4.97;;
77226;SDS011;66234;47.642;19.144;2024-02-16T11:40:32;7.67;;;4.23;;
77226;SDS011;66234;47.642;19.144;2024-02-16T11:43:35;8.52;;;4.88;;
77226;SDS011;66234;47.642;19.144;2024-02-16T11:46:43;7.07;;;3.75;;
77226;SDS011;66234;47.642;19.144;2024-02-16T11:49:46;9.13;;;4.32;;
77226;SDS011;66234;47.642;19.144;2024-02-16T11:52:49;11.93;;;6.20;;
77226;SDS011;66234;47.642;19.144;2024-02-16T11:55:52;11.30;;;5.17;;
77226;SDS011;66234;47.642;19.144;2024-02-16T11:58:55;10.00;;;5.45;;
77226;SDS011;66234;47.642;19.144;2024-02-16T12:01:58;7.65;;;4.53;;
77226;SDS011;66234;47.642;19.144;2024-02-16T12:05:01;11.63;;;5.30;;
77226;SDS011;66234;47.642;19.144;2024-02-16T12:08:06;14.52;;;5.57;;
77226;SDS011;66234;47.642;19.144;2024-02-16T12:11:10;8.63;;;5.07;;
77226;SDS011;66234;47.642;19.144;2024-02-16T12:14:12;9.00;;;5.30;;
77226;SDS011;66234;47.642;19.144;2024-02-16T12:17:15;11.13;;;5.40;;
77226;SDS011;66234;47.642;19.144;2024-02-16T12:20:17;9.00;;;5.03;;
77226;SDS011;66234;47.642;19.144;2024-02-16T12:23:20;9.88;;;5.20;;
77226;SDS011;66234;47.642;19.144;2024-02-16T12:26:23;9.70;;;4.50;;
77226;SDS011;66234;47.642;19.144;2024-02-16T12:29:26;6.78;;;4.15;;
77226;SDS011;66234;47.642;19.144;2024-02-16T12:32:28;7.05;;;3.92;;
77226;SDS011;66234;47.642;19.144;2024-02-16T12:35:31;9.13;;;4.63;;
77226;SDS011;66234;47.642;19.144;2024-02-16T12:38:34;10.30;;;5.15;;
77226;SDS011;66234;47.642;19.144;2024-02-16T12:41:37;8.47;;;4.67;;
77226;SDS011;66234;47.642;19.144;2024-02-16T12:44:42;8.90;;;4.20;;
77226;SDS011;66234;47.642;19.144;2024-02-16T12:47:45;8.95;;;4.63;;
77226;SDS011;66234;47.642;19.144;2024-02-16T12:50:49;10.63;;;4.75;;
77226;SDS011;66234;47.642;19.144;2024-02-16T12:53:53;8.75;;;4.80;;
77226;SDS011;66234;47.642;19.144;2024-02-16T12:56:56;10.97;;;5.43;;
77226;SDS011;66234;47.642;19.144;2024-02-16T12:59:59;9.07;;;4.78;;
77226;SDS011;66234;47.642;19.144;2024-02-16T13:03:01;10.65;;;5.97;;
77226;SDS011;66234;47.642;19.144;2024-02-16T13:06:04;11.43;;;5.15;;
77226;SDS011;66234;47.642;19.144;2024-02-16T13:09:07;8.90;;;5.35;;
77226;SDS011;66234;47.642;19.144;2024-02-16T13:12:11;10.57;;;5.53;;
77226;SDS011;66234;47.642;19.144;2024-02-16T13:15:14;10.25;;;6.18;;
77226;SDS011;66234;47.642;19.144;2024-02-16T13:18:29;10.73;;;5.32;;
77226;SDS011;66234;47.642;19.144;2024-02-16T13:21:32;10.60;;;5.10;;
77226;SDS011;66234;47.642;19.144;2024-02-16T13:24:34;8.77;;;5.03;;
77226;SDS011;66234;47.642;19.144;2024-02-16T13:27:37;10.13;;;5.43;;
77226;SDS011;66234;47.642;19.144;2024-02-16T13:30:41;10.88;;;5.60;;
77226;SDS011;66234;47.642;19.144;2024-02-16T13:33:43;8.70;;;5.43;;
77226;SDS011;66234;47.642;19.144;2024-02-16T13:36:46;10.40;;;5.68;;
77226;SDS011;66234;47.642;19.144;2024-02-16T13:39:49;11.82;;;6.07;;
77226;SDS011;66234;47.642;19.144;2024-02-16T13:42:52;10.80;;;5.93;;
77226;SDS011;66234;47.642;19.144;2024-02-16T13:45:57;9.18;;;6.18;;
77226;SDS011;66234;47.642;19.144;2024-02-16T13:49:00;8.80;;;5.28;;
77226;SDS011;66234;47.642;19.144;2024-02-16T13:52:03;10.38;;;4.68;;
77226;SDS011;66234;47.642;19.144;2024-02-16T13:55:07;11.68;;;5.38;;
77226;SDS011;66234;47.642;19.144;2024-02-16T13:58:11;7.10;;;4.30;;
77226;SDS011;66234;47.642;19.144;2024-02-16T14:01:13;10.23;;;5.72;;
77226;SDS011;66234;47.642;19.144;2024-02-16T14:04:17;11.38;;;5.90;;
77226;SDS011;66234;47.642;19.144;2024-02-16T14:07:21;9.30;;;5.07;;
77226;SDS011;66234;47.642;19.144;2024-02-16T14:10:23;10.48;;;5.60;;
77226;SDS011;66234;47.642;19.144;2024-02-16T14:13:26;7.73;;;5.17;;
77226;SDS011;66234;47.642;19.144;2024-02-16T14:16:29;9.00;;;5.00;;
77226;SDS011;66234;47.642;19.144;2024-02-16T14:19:32;7.80;;;5.05;;
77226;SDS011;66234;47.642;19.144;2024-02-16T14:22:39;7.50;;;4.97;;
77226;SDS011;66234;47.642;19.144;2024-02-16T14:25:42;11.20;;;5.57;;
77226;SDS011;66234;47.642;19.144;2024-02-16T14:28:45;9.20;;;5.17;;
77226;SDS011;66234;47.642;19.144;2024-02-16T14:31:48;8.35;;;5.22;;
77226;SDS011;66234;47.642;19.144;2024-02-16T14:34:51;8.35;;;5.35;;
77226;SDS011;66234;47.642;19.144;2024-02-16T14:37:54;9.35;;;5.20;;
77226;SDS011;66234;47.642;19.144;2024-02-16T14:40:57;6.72;;;4.88;;
77226;SDS011;66234;47.642;19.144;2024-02-16T14:44:00;9.70;;;5.53;;
77226;SDS011;66234;47.642;19.144;2024-02-16T14:47:03;7.35;;;5.25;;
77226;SDS011;66234;47.642;19.144;2024-02-16T14:50:06;9.57;;;5.13;;
77226;SDS011;66234;47.642;19.144;2024-02-16T14:53:10;10.75;;;6.30;;
77226;SDS011;66234;47.642;19.144;2024-02-16T14:56:13;9.38;;;6.03;;
77226;SDS011;66234;47.642;19.144;2024-02-16T14:59:16;7.37;;;5.30;;
77226;SDS011;66234;47.642;19.144;2024-02-16T15:02:19;12.10;;;6.63;;
77226;SDS011;66234;47.642;19.144;2024-02-16T15:05:23;11.20;;;6.38;;
77226;SDS011;66234;47.642;19.144;2024-02-16T15:08:25;12.15;;;6.18;;
77226;SDS011;66234;47.642;19.144;2024-02-16T15:11:29;16.63;;;6.90;;
77226;SDS011;66234;47.642;19.144;2024-02-16T15:14:32;11.10;;;7.10;;
77226;SDS011;66234;47.642;19.144;2024-02-16T15:17:36;15.75;;;9.18;;
77226;SDS011;66234;47.642;19.144;2024-02-16T15:20:38;12.95;;;8.27;;
77226;SDS011;66234;47.642;19.144;2024-02-16T15:23:41;14.48;;;8.00;;
77226;SDS011;66234;47.642;19.144;2024-02-16T15:26:44;16.38;;;8.40;;
77226;SDS011;66234;47.642;19.144;2024-02-16T15:29:46;14.03;;;8.50;;
77226;SDS011;66234;47.642;19.144;2024-02-16T15:32:49;13.13;;;8.05;;
77226;SDS011;66234;47.642;19.144;2024-02-16T15:35:56;13.27;;;8.23;;
77226;SDS011;66234;47.642;19.144;2024-02-16T15:39:00;13.70;;;8.18;;
77226;SDS011;66234;47.642;19.144;2024-02-16T15:42:02;13.15;;;8.35;;
77226;SDS011;66234;47.642;19.144;2024-02-16T15:45:05;17.60;;;9.40;;
77226;SDS011;66234;47.642;19.144;2024-02-16T15:48:10;15.85;;;8.57;;
77226;SDS011;66234;47.642;19.144;2024-02-16T15:51:14;15.40;;;9.45;;
77226;SDS011;66234;47.642;19.144;2024-02-16T15:54:17;18.17;;;9.80;;
77226;SDS011;66234;47.642;19.144;2024-02-16T15:57:20;25.40;;;11.95;;
77226;SDS011;66234;47.642;19.144;2024-02-16T16:00:22;33.00;;;13.57;;
77226;SDS011;66234;47.642;19.144;2024-02-16T16:03:26;32.75;;;13.95;;
77226;SDS011;66234;47.642;19.144;2024-02-16T16:06:29;34.55;;;15.52;;
77226;SDS011;66234;47.642;19.144;2024-02-16T16:09:32;34.00;;;15.65;;
77226;SDS011;66234;47.642;19.144;2024-02-16T16:12:35;25.63;;;12.00;;
77226;SDS011;66234;47.642;19.144;2024-02-16T16:15:37;22.53;;;11.53;;
77226;SDS011;66234;47.642;19.144;2024-02-16T16:18:40;17.20;;;9.45;;
77226;SDS011;66234;47.642;19.144;2024-02-16T16:21:43;25.27;;;10.82;;
77226;SDS011;66234;47.642;19.144;2024-02-16T16:24:45;20.08;;;10.93;;
77226;SDS011;66234;47.642;19.144;2024-02-16T16:27:48;25.13;;;15.13;;
77226;SDS011;66234;47.642;19.144;2024-02-16T16:30:51;21.50;;;14.20;;
77226;SDS011;66234;47.642;19.144;2024-02-16T16:33:54;24.58;;;13.02;;
77226;SDS011;66234;47.642;19.144;2024-02-16T16:36:57;24.75;;;14.05;;
77226;SDS011;66234;47.642;19.144;2024-02-16T16:39:59;29.55;;;17.55;;
77226;SDS011;66234;47.642;19.144;2024-02-16T16:43:02;26.90;;;15.40;;
77226;SDS011;66234;47.642;19.144;2024-02-16T16:46:05;34.87;;;16.23;;
77226;SDS011;66234;47.642;19.144;2024-02-16T16:49:10;33.38;;;16.13;;
77226;SDS011;66234;47.642;19.144;2024-02-16T16:52:12;28.77;;;14.77;;
77226;SDS011;66234;47.642;19.144;2024-02-16T16:55:15;26.17;;;13.15;;
77226;SDS011;66234;47.642;19.144;2024-02-16T16:58:18;30.08;;;14.43;;
77226;SDS011;66234;47.642;19.144;2024-02-16T17:01:21;24.30;;;14.60;;
77226;SDS011;66234;47.642;19.144;2024-02-16T17:04:24;25.25;;;13.35;;
77226;SDS011;66234;47.642;19.144;2024-02-16T17:07:27;27.58;;;14.77;;
77226;SDS011;66234;47.642;19.144;2024-02-16T17:10:29;24.38;;;14.85;;
77226;SDS011;66234;47.642;19.144;2024-02-16T17:13:32;28.13;;;15.13;;
77226;SDS011;66234;47.642;19.144;2024-02-16T17:16:35;27.80;;;13.60;;
77226;SDS011;66234;47.642;19.144;2024-02-16T17:19:37;24.63;;;14.32;;
77226;SDS011;66234;47.642;19.144;2024-02-16T17:22:40;25.88;;;13.90;;
77226;SDS011;66234;47.642;19.144;2024-02-16T17:25:43;25.65;;;13.73;;
77226;SDS011;66234;47.642;19.144;2024-02-16T17:28:45;27.42;;;14.63;;
77226;SDS011;66234;47.642;19.144;2024-02-16T17:31:48;25.50;;;14.60;;
77226;SDS011;66234;47.642;19.144;2024-02-16T17:34:50;27.67;;;15.30;;
77226;SDS011;66234;47.642;19.144;2024-02-16T17:37:54;37.33;;;19.23;;
77226;SDS011;66234;47.642;19.144;2024-02-16T17:40:57;38.80;;;19.27;;
77226;SDS011;66234;47.642;19.144;2024-02-16T17:44:01;33.15;;;17.75;;
77226;SDS011;66234;47.642;19.144;2024-02-16T17:47:04;29.63;;;15.53;;
77226;SDS011;66234;47.642;19.144;2024-02-16T17:50:06;27.98;;;15.93;;